Time;durP1;ratioP1;P1;durP2;ratioP2;P2;SDS_P1;SDS_P2;PMS_P1;PMS_P2;Temp;Humidity;BMP_temperature;BMP_pressure;BME280_temperature;BME280_humidity;BME280_pressure;Samples;Min_cycle;Max_cycle;Signal;HPM_P1;HPM_P2
2023/09/22 00:00:21;;;;;;;8.35;6.85;;;;;;;19.87;66.94;99213.69;7395107;19;20014;-67
2023/09/22 00:02:49;;;;;;;10.35;7.38;;;;;;;19.88;67.15;99217.19;7394599;19;20074;-67
2023/09/22 00:05:18;;;;;;;11.27;7.45;;;;;;;19.89;67.28;99226.88;7396680;19;20078;-68
2023/09/22 00:07:46;;;;;;;12.23;7.53;;;;;;;19.88;67.38;99233.16;7396647;19;20078;-66
2023/09/22 00:10:21;;;;;;;8.43;7.03;;;;;;;19.87;67.29;99232.31;7396525;19;20011;-68
2023/09/22 00:12:49;;;;;;;13.70;7.55;;;;;;;19.88;67.19;99233.16;7394544;19;20014;-68
2023/09/22 00:15:21;;;;;;;9.23;6.75;;;;;;;19.88;67.23;99228.69;7395980;19;20010;-68
2023/09/22 00:17:49;;;;;;;9.07;7.38;;;;;;;19.89;67.05;99230.38;7396742;19;20350;-68
2023/09/22 00:20:18;;;;;;;8.00;6.55;;;;;;;19.89;67.32;99224.22;7394522;19;20014;-67
2023/09/22 00:22:47;;;;;;;9.43;7.13;;;;;;;19.90;67.58;99226.72;7395845;19;20015;-67
2023/09/22 00:25:16;;;;;;;12.07;6.95;;;;;;;19.91;67.76;99222.28;7395932;19;20018;-67
2023/09/22 00:27:44;;;;;;;9.60;7.82;;;;;;;19.91;67.75;99230.25;7394362;19;20033;-68
2023/09/22 00:30:13;;;;;;;8.70;6.88;;;;;;;19.90;67.53;99237.38;7395940;19;20010;-67
2023/09/22 00:32:44;;;;;;;11.45;8.27;;;;;;;19.90;67.42;99241.88;7393162;19;20163;-68
2023/09/22 00:35:14;;;;;;;9.20;6.82;;;;;;;19.90;67.47;99229.38;7396235;19;20081;-67
2023/09/22 00:37:43;;;;;;;8.98;6.93;;;;;;;19.88;67.62;99236.69;7395326;19;20470;-68
2023/09/22 00:40:12;;;;;;;9.52;7.50;;;;;;;19.87;67.78;99240.31;7394947;19;20028;-68
2023/09/22 00:42:41;;;;;;;9.98;7.22;;;;;;;19.85;67.58;99235.13;7395743;19;20032;-67
2023/09/22 00:45:10;;;;;;;11.13;7.53;;;;;;;19.84;67.85;99238.75;7395368;19;20014;-67
2023/09/22 00:47:39;;;;;;;9.48;7.38;;;;;;;19.82;68.08;99229.19;7395031;19;20433;-67
2023/09/22 00:50:12;;;;;;;9.65;7.38;;;;;;;19.81;68.13;99232.81;7395308;19;20019;-68
2023/09/22 00:52:41;;;;;;;10.77;7.43;;;;;;;19.79;67.90;99235.59;7393378;19;20007;-68
2023/09/22 00:55:10;;;;;;;11.20;7.35;;;;;;;19.77;67.94;99245.53;7394768;19;20425;-67
2023/09/22 00:57:39;;;;;;;9.30;7.75;;;;;;;19.74;68.37;99250.25;7395046;19;20074;-68
2023/09/22 01:00:09;;;;;;;7.80;6.95;;;;;;;19.71;68.60;99248.69;7395058;19;20020;-68
2023/09/22 01:02:39;;;;;;;9.35;7.18;;;;;;;19.67;68.36;99257.91;7394771;19;20019;-68
2023/09/22 01:05:10;;;;;;;9.27;7.72;;;;;;;19.63;68.48;99262.66;7392677;19;20027;-68
2023/09/22 01:07:40;;;;;;;9.35;7.65;;;;;;;19.58;68.71;99258.69;7394950;19;20110;-68
2023/09/22 01:10:12;;;;;;;10.35;7.68;;;;;;;19.53;68.67;99257.25;7394668;19;20031;-68
2023/09/22 01:12:40;;;;;;;10.35;7.72;;;;;;;19.47;69.01;99264.88;7393855;19;20019;-68
2023/09/22 01:15:10;;;;;;;10.38;7.82;;;;;;;19.42;69.48;99267.09;7394118;19;20481;-69
2023/09/22 01:17:40;;;;;;;9.10;7.60;;;;;;;19.37;69.72;99278.09;7394406;19;20003;-67
2023/09/22 01:20:12;;;;;;;12.88;8.38;;;;;;;19.31;69.80;99263.50;7394621;19;20024;-70
2023/09/22 01:22:43;;;;;;;11.68;8.10;;;;;;;19.27;69.66;99270.03;7393878;19;20514;-76
2023/09/22 01:25:12;;;;;;;9.80;7.90;;;;;;;19.25;70.04;99273.81;7394633;19;20007;-69
2023/09/22 01:27:40;;;;;;;8.95;7.32;;;;;;;19.21;70.49;99268.72;7394386;19;20034;-69
2023/09/22 01:30:10;;;;;;;8.63;7.53;;;;;;;19.20;70.08;99282.16;7394249;19;20020;-69
2023/09/22 01:32:39;;;;;;;9.52;7.70;;;;;;;19.16;70.77;99275.41;7391655;19;20380;-69
2023/09/22 01:35:09;;;;;;;12.60;7.22;;;;;;;19.14;70.46;99285.28;7394055;19;20015;-69
2023/09/22 01:37:41;;;;;;;10.82;7.30;;;;;;;19.11;70.81;99285.53;7394580;19;20024;-69
2023/09/22 01:40:14;;;;;;;10.23;7.43;;;;;;;19.09;70.96;99284.81;7393927;19;20028;-70
2023/09/22 01:42:42;;;;;;;9.53;7.23;;;;;;;19.05;70.90;99285.06;7391541;19;20010;-69
2023/09/22 01:45:11;;;;;;;11.05;7.53;;;;;;;19.04;71.08;99275.41;7399621;19;20083;-68
2023/09/22 01:47:41;;;;;;;7.97;7.18;;;;;;;19.03;71.29;99273.72;7400887;19;20034;-69
2023/09/22 01:50:11;;;;;;;7.72;6.88;;;;;;;19.01;70.96;99282.78;7400706;19;20011;-69
2023/09/22 01:52:39;;;;;;;8.27;6.63;;;;;;;19.01;71.35;99282.78;7398179;19;20078;-69
2023/09/22 01:55:09;;;;;;;11.95;7.63;;;;;;;18.99;71.45;99285.56;7398194;19;20014;-69
2023/09/22 01:57:40;;;;;;;8.88;7.55;;;;;;;18.98;71.42;99285.69;7400389;19;20010;-69
2023/09/22 02:00:10;;;;;;;8.45;7.35;;;;;;;18.97;71.38;99286.63;7401171;19;20074;-68
2023/09/22 02:02:42;;;;;;;12.70;7.30;;;;;;;18.96;71.59;99288.47;7399958;19;20482;-69
2023/09/22 02:05:11;;;;;;;8.68;7.00;;;;;;;18.93;71.51;99291.38;7400908;19;20030;-67
2023/09/22 02:07:40;;;;;;;9.43;6.25;;;;;;;18.93;71.54;99285.19;7400471;19;20011;-68
2023/09/22 02:10:10;;;;;;;8.20;6.13;;;;;;;18.89;71.62;99287.22;7401540;19;20077;-70
2023/09/22 02:12:41;;;;;;;6.97;6.20;;;;;;;18.89;71.56;99296.06;7400059;19;20094;-69
2023/09/22 02:15:12;;;;;;;9.00;5.60;;;;;;;18.87;71.86;99300.63;7398481;19;20099;-69
2023/09/22 02:17:41;;;;;;;11.48;5.63;;;;;;;18.87;71.71;99315.75;7400624;19;20021;-69
2023/09/22 02:20:18;;;;;;;6.55;4.75;;;;;;;18.85;71.72;99320.31;7399876;19;20078;-69
2023/09/22 02:22:47;;;;;;;8.20;4.95;;;;;;;18.83;71.54;99341.72;7399881;19;20018;-69
2023/09/22 02:25:16;;;;;;;7.13;4.80;;;;;;;18.83;71.62;99348.81;7399386;19;20020;-69
2023/09/22 02:27:48;;;;;;;6.20;3.90;;;;;;;18.81;71.58;99346.28;7399581;19;20038;-68
2023/09/22 02:30:17;;;;;;;11.73;4.43;;;;;;;18.81;71.97;99372.84;7399785;19;20385;-69
2023/09/22 02:32:48;;;;;;;5.22;3.80;;;;;;;18.80;71.73;99373.81;7397620;19;20501;-69
2023/09/22 02:35:17;;;;;;;6.07;3.10;;;;;;;18.80;71.45;99365.00;7400188;19;20039;-69
2023/09/22 02:37:45;;;;;;;3.83;3.05;;;;;;;18.79;71.55;99372.16;7399438;19;20081;-69
2023/09/22 02:40:15;;;;;;;6.55;3.00;;;;;;;18.78;71.54;99378.44;7399003;19;20031;-69
2023/09/22 02:42:47;;;;;;;4.90;2.42;;;;;;;18.78;71.47;99374.91;7398845;19;20018;-70
2023/09/22 02:45:15;;;;;;;3.97;2.25;;;;;;;18.78;71.61;99374.91;7399465;19;20078;-68
2023/09/22 02:47:44;;;;;;;2.03;1.83;;;;;;;18.79;71.67;99379.25;7399041;19;20066;-69
2023/09/22 02:50:15;;;;;;;2.63;1.80;;;;;;;18.76;71.93;99374.19;7398522;19;20015;-68
2023/09/22 02:52:44;;;;;;;4.13;1.60;;;;;;;18.71;72.94;99372.72;7396937;19;20415;-68
2023/09/22 02:55:13;;;;;;;4.07;1.42;;;;;;;18.67;73.32;99379.25;7398042;19;20478;-67
2023/09/22 02:57:43;;;;;;;2.10;1.10;;;;;;;18.61;73.45;99385.03;7398834;19;20011;-68
2023/09/22 03:00:17;;;;;;;1.98;1.20;;;;;;;18.54;73.96;99389.13;7398542;19;20018;-68
2023/09/22 03:02:46;;;;;;;2.35;0.98;;;;;;;18.47;74.49;99393.22;7396134;19;20023;-69
2023/09/22 03:05:16;;;;;;;2.65;1.00;;;;;;;18.38;74.70;99400.91;7399492;19;20031;-69
2023/09/22 03:07:45;;;;;;;1.38;0.60;;;;;;;18.32;75.55;99395.22;7398669;19;20102;-69
2023/09/22 03:10:14;;;;;;;0.65;0.50;;;;;;;18.23;75.85;99413.53;7397497;19;20015;-69
2023/09/22 03:12:42;;;;;;;1.20;0.50;;;;;;;18.14;76.34;99421.34;7397039;19;20031;-69
2023/09/22 03:15:14;;;;;;;0.85;0.60;;;;;;;18.03;76.97;99428.31;7395685;19;20493;-68
2023/09/22 03:17:42;;;;;;;1.77;0.50;;;;;;;17.94;76.91;99428.97;7397874;19;20486;-67
2023/09/22 03:20:13;;;;;;;1.70;0.65;;;;;;;17.85;77.82;99426.97;7395649;19;20347;-68
2023/09/22 03:22:42;;;;;;;1.73;0.52;;;;;;;17.75;78.35;99437.41;7398197;19;20018;-69
2023/09/22 03:25:12;;;;;;;0.70;0.50;;;;;;;17.67;79.06;99437.97;7396544;19;20011;-67
2023/09/22 03:27:40;;;;;;;2.20;0.70;;;;;;;17.58;80.19;99433.31;7397824;19;20012;-69
2023/09/22 03:30:13;;;;;;;0.80;0.70;;;;;;;17.50;81.72;99430.38;7395325;19;20010;-69
2023/09/22 03:32:44;;;;;;;2.08;0.90;;;;;;;17.38;82.20;99446.19;7396195;19;20074;-69
2023/09/22 03:35:13;;;;;;;1.20;0.60;;;;;;;17.28;82.62;99465.53;7398098;19;20023;-68
2023/09/22 03:37:42;;;;;;;1.95;0.85;;;;;;;17.14;83.34;99464.66;7396927;19;20087;-69
2023/09/22 03:40:20;;;;;;;0.80;0.55;;;;;;;17.01;84.50;99464.69;7396740;19;20486;-69
2023/09/22 03:42:55;;;;;;;2.42;0.60;;;;;;;16.92;85.57;99460.00;7395473;19;20524;-70
2023/09/22 03:45:24;;;;;;;1.58;0.95;;;;;;;16.82;85.76;99453.59;7396934;19;20066;-69
2023/09/22 03:47:55;;;;;;;0.90;0.75;;;;;;;16.72;86.40;99448.94;7397259;19;20435;-69
2023/09/22 03:50:23;;;;;;;2.75;0.63;;;;;;;16.64;87.19;99448.59;7397180;19;20010;-68
2023/09/22 03:52:52;;;;;;;2.03;1.13;;;;;;;16.58;88.24;99438.41;7396211;19;20505;-68
2023/09/22 03:55:21;;;;;;;2.47;0.95;;;;;;;16.52;88.42;99425.63;7397637;19;20034;-70
2023/09/22 03:57:49;;;;;;;2.97;1.20;;;;;;;16.43;88.94;99417.34;7396419;19;20034;-69
2023/09/22 04:00:24;;;;;;;2.22;1.08;;;;;;;16.37;89.47;99411.63;7397106;19;20078;-69
2023/09/22 04:02:55;;;;;;;2.40;1.10;;;;;;;16.33;90.39;99410.09;7395686;19;20011;-69
2023/09/22 04:05:30;;;;;;;3.70;1.23;;;;;;;16.29;90.98;99414.78;7397163;19;20022;-69
2023/09/22 04:07:59;;;;;;;2.28;1.08;;;;;;;16.23;91.23;99409.91;7394668;19;20553;-69
2023/09/22 04:10:27;;;;;;;2.50;1.30;;;;;;;16.21;91.57;99425.84;7396788;19;20422;-69
2023/09/22 04:12:56;;;;;;;3.22;1.40;;;;;;;16.18;91.79;99430.53;7394943;19;20074;-69
2023/09/22 04:15:24;;;;;;;3.85;1.73;;;;;;;16.15;92.44;99430.72;7397032;19;20017;-69
2023/09/22 04:17:55;;;;;;;2.30;1.35;;;;;;;16.10;92.93;99439.81;7396629;19;20079;-69
2023/09/22 04:20:32;;;;;;;5.25;1.52;;;;;;;16.07;93.66;99469.09;7396395;19;20079;-69
2023/09/22 04:23:04;;;;;;;2.88;1.45;;;;;;;16.04;93.44;99466.66;7393936;19;20006;-69
2023/09/22 04:25:34;;;;;;;1.83;0.95;;;;;;;15.99;94.07;99458.19;7396293;19;20070;-69
2023/09/22 04:28:09;;;;;;;3.28;1.10;;;;;;;15.99;94.81;99455.53;7396008;19;20018;-69
2023/09/22 04:30:38;;;;;;;2.50;1.30;;;;;;;15.97;94.37;99460.06;7396558;19;20031;-70
2023/09/22 04:33:10;;;;;;;2.65;1.10;;;;;;;15.95;94.36;99478.69;7394016;19;20022;-69
2023/09/22 04:35:40;;;;;;;2.13;1.50;;;;;;;15.94;94.45;99473.50;7393751;19;20269;-70
2023/09/22 04:38:08;;;;;;;2.75;1.30;;;;;;;15.93;95.14;99469.97;7393713;19;20552;-70
2023/09/22 04:40:38;;;;;;;4.03;1.17;;;;;;;15.93;95.06;99477.09;7395125;19;20450;-70
2023/09/22 04:43:08;;;;;;;4.88;2.72;;;;;;;15.91;95.49;99471.91;7394669;19;20386;-70
2023/09/22 04:45:40;;;;;;;2.78;1.17;;;;;;;15.92;95.54;99470.09;7396370;19;20018;-69
2023/09/22 04:48:13;;;;;;;2.70;1.13;;;;;;;15.90;95.50;99461.44;7395610;19;20022;-69
2023/09/22 04:50:42;;;;;;;1.90;1.10;;;;;;;15.91;95.83;99463.09;7395282;19;20366;-69
2023/09/22 04:53:11;;;;;;;2.10;1.02;;;;;;;15.90;95.61;99464.06;7394343;19;20049;-70
2023/09/22 04:55:40;;;;;;;2.20;1.00;;;;;;;15.88;95.65;99456.22;7394138;19;20500;-68
2023/09/22 04:58:08;;;;;;;3.45;0.98;;;;;;;15.87;95.85;99469.53;7394448;19;20034;-69
2023/09/22 05:00:37;;;;;;;8.88;1.50;;;;;;;15.84;95.89;99464.47;7394072;19;20020;-69
2023/09/22 05:03:07;;;;;;;2.58;1.05;;;;;;;15.85;96.23;99467.00;7393191;19;20028;-69
2023/09/22 05:05:38;;;;;;;2.45;1.00;;;;;;;15.85;96.25;99471.47;7392164;19;20014;-69
2023/09/22 05:08:08;;;;;;;2.72;1.58;;;;;;;15.83;96.34;99471.53;7393350;19;20031;-68
2023/09/22 05:10:36;;;;;;;2.03;1.10;;;;;;;15.84;96.61;99477.69;7391829;19;20122;-69
2023/09/22 05:13:05;;;;;;;8.23;3.10;;;;;;;15.82;96.99;99477.75;7393447;19;20019;-70
2023/09/22 05:15:33;;;;;;;6.30;1.35;;;;;;;15.82;96.90;99506.84;7394817;19;20014;-69
2023/09/22 05:18:04;;;;;;;2.03;1.15;;;;;;;15.82;96.81;99521.88;7394195;19;20066;-67
2023/09/22 05:20:34;;;;;;;3.60;1.20;;;;;;;15.81;97.29;99523.66;7400570;19;20488;-69
2023/09/22 05:23:06;;;;;;;1.75;1.33;;;;;;;15.81;97.11;99536.88;7399626;19;20015;-68
2023/09/22 05:25:35;;;;;;;2.97;1.33;;;;;;;15.80;97.40;99524.59;7402242;19;20028;-69
2023/09/22 05:28:04;;;;;;;8.57;1.25;;;;;;;15.81;97.42;99531.59;7398192;19;20074;-69
2023/09/22 05:30:33;;;;;;;2.67;1.13;;;;;;;15.80;97.42;99538.66;7401129;19;20010;-69
2023/09/22 05:33:06;;;;;;;3.33;1.00;;;;;;;15.80;97.24;99548.41;7399369;19;20011;-69
2023/09/22 05:35:35;;;;;;;2.47;1.13;;;;;;;15.79;97.51;99552.81;7401199;19;20010;-69
2023/09/22 05:38:07;;;;;;;4.35;1.00;;;;;;;15.79;97.74;99550.19;7401499;19;20085;-70
2023/09/22 05:40:36;;;;;;;1.38;0.90;;;;;;;15.79;97.58;99560.75;7398187;19;20006;-70
2023/09/22 05:43:07;;;;;;;2.22;0.98;;;;;;;15.79;97.60;99565.19;7399660;19;20018;-70
2023/09/22 05:45:35;;;;;;;2.30;0.90;;;;;;;15.79;97.89;99576.63;7400303;19;20518;-69
2023/09/22 05:48:04;;;;;;;2.35;0.93;;;;;;;15.80;97.73;99580.97;7400195;19;20096;-68
2023/09/22 05:50:32;;;;;;;1.13;0.93;;;;;;;15.80;97.91;99578.31;7400193;19;20549;-68
2023/09/22 05:53:01;;;;;;;2.08;0.95;;;;;;;15.83;97.91;99581.75;7399969;19;20090;-69
2023/09/22 05:55:33;;;;;;;3.03;1.17;;;;;;;15.83;97.62;99587.06;7400341;19;20478;-69
2023/09/22 05:58:01;;;;;;;1.83;1.00;;;;;;;15.85;97.59;99579.88;7400804;19;20098;-69
2023/09/22 06:00:31;;;;;;;2.20;0.98;;;;;;;15.87;97.67;99573.56;7399976;19;20010;-69
2023/09/22 06:03:00;;;;;;;11.15;1.40;;;;;;;15.89;97.81;99560.22;7399613;19;20010;-70
2023/09/22 06:05:30;;;;;;;1.20;1.00;;;;;;;15.90;97.72;99551.34;7400707;19;20424;-69
2023/09/22 06:07:59;;;;;;;2.03;0.80;;;;;;;15.93;97.62;99551.16;7399423;19;20035;-69
2023/09/22 06:10:27;;;;;;;2.15;1.38;;;;;;;15.94;97.69;99551.03;7399911;19;20074;-69
2023/09/22 06:12:58;;;;;;;2.70;1.00;;;;;;;16.00;97.46;99549.81;7399589;19;20042;-69
2023/09/22 06:15:27;;;;;;;4.05;1.02;;;;;;;16.03;97.44;99565.47;7400627;19;20010;-69
2023/09/22 06:17:55;;;;;;;2.05;1.00;;;;;;;16.06;97.39;99575.03;7400169;19;20010;-69
2023/09/22 06:20:24;;;;;;;1.42;1.13;;;;;;;16.07;97.29;99572.28;7400001;19;20014;-69
2023/09/22 06:22:52;;;;;;;2.28;1.20;;;;;;;16.09;97.12;99586.25;7399311;19;20086;-69
2023/09/22 06:25:21;;;;;;;2.17;1.30;;;;;;;16.11;96.90;99597.59;7396896;19;20010;-69
2023/09/22 06:27:52;;;;;;;3.28;1.25;;;;;;;16.11;97.21;99602.91;7399690;19;20021;-69
2023/09/22 06:30:23;;;;;;;2.03;1.15;;;;;;;16.12;96.95;99596.66;7398596;19;20048;-69
2023/09/22 06:32:51;;;;;;;3.03;1.40;;;;;;;16.13;96.95;99590.41;7398521;19;20014;-69
2023/09/22 06:35:20;;;;;;;2.42;1.02;;;;;;;16.11;96.93;99592.31;7399142;19;20066;-69
2023/09/22 06:37:49;;;;;;;1.80;1.00;;;;;;;16.12;96.84;99601.97;7396898;19;20015;-69
2023/09/22 06:40:17;;;;;;;2.25;1.10;;;;;;;16.10;96.63;99601.19;7399419;19;20007;-70
2023/09/22 06:42:47;;;;;;;1.40;1.00;;;;;;;16.08;96.57;99591.66;7397041;19;20018;-70
2023/09/22 06:45:15;;;;;;;8.20;4.65;;;;;;;16.10;96.48;99598.56;7398663;19;20379;-69
2023/09/22 06:47:48;;;;;;;3.25;1.25;;;;;;;16.10;96.47;99609.13;7399449;19;20011;-68
2023/09/22 06:50:17;;;;;;;2.88;1.52;;;;;;;16.10;96.78;99614.44;7398728;19;20017;-69
2023/09/22 06:52:46;;;;;;;3.22;1.35;;;;;;;16.11;96.74;99628.50;7396732;19;20046;-69
2023/09/22 06:55:16;;;;;;;2.25;1.38;;;;;;;16.12;96.98;99636.34;7397579;19;20022;-68
2023/09/22 06:57:44;;;;;;;2.15;1.00;;;;;;;16.15;96.85;99634.44;7399108;19;20074;-68
2023/09/22 07:00:18;;;;;;;1.88;1.20;;;;;;;16.13;96.65;99638.03;7399839;19;20077;-69
2023/09/22 07:02:50;;;;;;;3.05;1.52;;;;;;;16.15;96.56;99650.31;7399451;19;20510;-71
2023/09/22 07:05:19;;;;;;;3.72;1.15;;;;;;;16.16;96.38;99657.31;7400042;19;20376;-70
2023/09/22 07:07:49;;;;;;;1.42;0.90;;;;;;;16.15;96.68;99663.56;7398797;19;20023;-72
2023/09/22 07:10:19;;;;;;;2.80;1.10;;;;;;;16.16;96.59;99668.75;7396549;19;20006;-68
2023/09/22 07:12:48;;;;;;;1.52;0.95;;;;;;;16.17;96.56;99669.59;7395844;19;20026;-69
2023/09/22 07:15:17;;;;;;;3.85;0.90;;;;;;;16.16;96.33;99676.69;7395054;19;20085;-68
2023/09/22 07:17:48;;;;;;;1.90;1.00;;;;;;;16.16;96.39;99674.03;7397360;19;20007;-69
2023/09/22 07:20:17;;;;;;;3.00;1.20;;;;;;;16.18;96.35;99680.09;7397509;19;20070;-68
2023/09/22 07:22:47;;;;;;;2.17;1.70;;;;;;;16.20;96.22;99682.63;7396813;19;20469;-69
2023/09/22 07:25:16;;;;;;;1.83;1.27;;;;;;;16.20;96.42;99685.28;7399080;19;20014;-69
2023/09/22 07:27:46;;;;;;;2.42;1.20;;;;;;;16.20;96.30;99696.75;7397343;19;20015;-69
2023/09/22 07:30:18;;;;;;;3.28;1.70;;;;;;;16.22;96.19;99700.13;7397404;19;20489;-70
2023/09/22 07:32:49;;;;;;;4.03;1.60;;;;;;;16.24;96.17;99692.09;7397448;19;20015;-69
2023/09/22 07:35:17;;;;;;;2.25;1.17;;;;;;;16.22;95.84;99686.88;7395602;19;20015;-69
2023/09/22 07:37:46;;;;;;;3.15;1.60;;;;;;;16.23;95.77;99669.22;7397297;19;20171;-69
2023/09/22 07:40:14;;;;;;;5.85;2.00;;;;;;;16.27;95.82;99681.31;7395287;19;20011;-69
2023/09/22 07:42:44;;;;;;;3.13;1.48;;;;;;;16.31;96.12;99689.91;7393358;19;20022;-68
2023/09/22 07:45:14;;;;;;;4.00;1.90;;;;;;;16.35;95.79;99700.22;7396898;19;20020;-67
2023/09/22 07:47:42;;;;;;;3.03;1.20;;;;;;;16.40;95.57;99700.78;7396464;19;20025;-68
2023/09/22 07:50:14;;;;;;;3.40;1.83;;;;;;;16.43;95.38;99708.53;7396313;19;20050;-67
2023/09/22 07:52:43;;;;;;;3.78;1.23;;;;;;;16.46;95.44;99710.13;7394824;19;20015;-68
2023/09/22 07:55:14;;;;;;;2.13;1.35;;;;;;;16.48;95.02;99718.84;7394350;19;20058;-69
2023/09/22 07:57:46;;;;;;;2.67;1.30;;;;;;;16.50;94.82;99710.78;7397149;19;20019;-67
2023/09/22 08:00:18;;;;;;;3.30;1.10;;;;;;;16.50;94.70;99716.09;7395245;19;20018;-69
2023/09/22 08:02:47;;;;;;;1.88;1.02;;;;;;;16.52;94.65;99722.97;7396043;19;20010;-67
2023/09/22 08:05:18;;;;;;;3.92;1.27;;;;;;;16.56;93.94;99728.94;7396205;19;20015;-68
2023/09/22 08:07:47;;;;;;;2.35;1.10;;;;;;;16.57;93.93;99734.13;7396241;19;20015;-69
2023/09/22 08:10:17;;;;;;;4.05;1.40;;;;;;;16.61;93.73;99740.94;7395614;19;20537;-69
2023/09/22 08:12:46;;;;;;;9.65;4.15;;;;;;;16.65;93.54;99741.59;7395689;19;20044;-68
2023/09/22 08:15:14;;;;;;;6.32;2.78;;;;;;;16.69;93.58;99745.72;7393920;19;20469;-68
2023/09/22 08:17:44;;;;;;;5.07;2.92;;;;;;;16.72;93.10;99753.50;7395352;19;20003;-68
2023/09/22 08:20:15;;;;;;;6.35;3.63;;;;;;;16.75;93.19;99749.81;7395415;19;20025;-68
2023/09/22 08:22:47;;;;;;;6.00;2.20;;;;;;;16.76;93.12;99759.47;7395673;19;20011;-69
2023/09/22 08:25:16;;;;;;;3.28;1.58;;;;;;;16.77;92.82;99763.81;7393949;19;20121;-69
2023/09/22 08:27:44;;;;;;;4.65;1.80;;;;;;;16.76;92.77;99770.91;7395783;19;20014;-68
2023/09/22 08:30:14;;;;;;;3.55;1.73;;;;;;;16.78;92.66;99766.38;7395263;19;20074;-68
2023/09/22 08:32:43;;;;;;;3.67;1.65;;;;;;;16.80;92.26;99773.38;7394393;19;20011;-66
2023/09/22 08:35:13;;;;;;;2.30;1.40;;;;;;;16.80;92.22;99779.50;7393348;19;20082;-67
2023/09/22 08:37:42;;;;;;;1.95;1.70;;;;;;;16.81;92.05;99777.69;7393440;19;20082;-68
2023/09/22 08:40:15;;;;;;;6.05;1.80;;;;;;;16.78;92.02;99771.66;7395716;19;20087;-69
2023/09/22 08:42:45;;;;;;;1.90;1.17;;;;;;;16.81;91.81;99775.03;7393746;19;20031;-68
2023/09/22 08:45:15;;;;;;;1.80;1.30;;;;;;;16.82;91.66;99772.31;7395631;19;20015;-68
2023/09/22 08:47:47;;;;;;;3.75;1.40;;;;;;;16.82;91.27;99777.63;7393071;19;20073;-68
2023/09/22 08:50:17;;;;;;;2.67;1.02;;;;;;;16.84;91.59;99777.50;7394942;19;20018;-68
2023/09/22 08:52:49;;;;;;;2.63;1.17;;;;;;;16.84;90.97;99769.56;7391683;19;20470;-68
2023/09/22 08:55:21;;;;;;;2.92;1.23;;;;;;;16.85;91.09;99771.28;7394096;19;20027;-68
2023/09/22 08:57:58;;;;;;;3.00;1.55;;;;;;;16.84;90.73;99770.41;7394678;19;20415;-68
2023/09/22 09:00:29;;;;;;;2.35;1.40;;;;;;;16.86;90.92;99787.06;7395288;19;20014;-69
2023/09/22 09:03:00;;;;;;;1.85;0.93;;;;;;;16.88;90.78;99797.56;7393514;19;20070;-68
2023/09/22 09:05:30;;;;;;;2.03;1.00;;;;;;;16.88;90.44;99803.72;7395286;19;20014;-68
2023/09/22 09:08:12;;;;;;;3.08;1.50;;;;;;;16.89;90.14;99809.84;7394495;19;20019;-68
2023/09/22 09:10:44;;;;;;;4.00;1.08;;;;;;;16.89;90.18;99808.03;7392356;19;20010;-67
2023/09/22 09:13:16;;;;;;;3.90;1.35;;;;;;;16.91;89.98;99813.31;7394282;19;20034;-67
2023/09/22 09:15:47;;;;;;;3.28;1.30;;;;;;;16.93;90.14;99822.84;7392628;19;20094;-67
2023/09/22 09:18:18;;;;;;;3.13;1.45;;;;;;;16.96;90.04;99829.75;7392698;19;20421;-67
2023/09/22 09:20:48;;;;;;;3.40;1.02;;;;;;;16.97;89.35;99827.94;7395551;19;20007;-67
2023/09/22 09:23:19;;;;;;;1.67;0.98;;;;;;;17.00;89.31;99828.59;7393149;19;20088;-68
2023/09/22 09:25:54;;;;;;;3.92;1.35;;;;;;;17.03;89.43;99830.22;7398219;19;20082;-68
2023/09/22 09:28:23;;;;;;;2.60;1.20;;;;;;;17.04;89.33;99832.75;7393805;19;20019;-67
2023/09/22 09:30:53;;;;;;;4.35;1.75;;;;;;;17.06;89.18;99838.81;7393646;19;20070;-67
2023/09/22 09:33:23;;;;;;;3.72;1.08;;;;;;;17.04;89.02;99838.06;7391317;19;20082;-67
2023/09/22 09:35:52;;;;;;;7.57;1.38;;;;;;;17.04;89.06;99834.56;7392697;19;20082;-69
2023/09/22 09:38:20;;;;;;;3.30;1.27;;;;;;;17.05;88.58;99830.97;7393255;19;20481;-67
2023/09/22 09:40:54;;;;;;;4.82;1.20;;;;;;;17.05;88.62;99826.53;7393096;19;20548;-68
2023/09/22 09:43:23;;;;;;;2.47;1.10;;;;;;;17.04;88.46;99819.50;7391082;19;20019;-67
2023/09/22 09:45:56;;;;;;;2.65;1.25;;;;;;;17.03;88.68;99825.75;7392828;19;20034;-68
2023/09/22 09:48:25;;;;;;;2.23;0.87;;;;;;;17.02;88.39;99826.72;7392975;19;20010;-68
2023/09/22 09:50:58;;;;;;;2.67;1.40;;;;;;;17.01;88.24;99819.72;7393090;19;20082;-68
2023/09/22 09:53:38;;;;;;;3.25;1.60;;;;;;;17.00;87.93;99818.00;7393100;19;20010;-68
2023/09/22 09:56:09;;;;;;;2.65;1.33;;;;;;;17.02;87.93;99817.91;7390982;19;20014;-68
2023/09/22 09:58:39;;;;;;;1.95;1.15;;;;;;;17.02;87.95;99817.91;7393790;19;20027;-68
2023/09/22 10:01:09;;;;;;;2.65;1.77;;;;;;;16.99;88.02;99813.66;7392773;19;20086;-69
2023/09/22 10:03:45;;;;;;;1.58;1.00;;;;;;;17.06;87.87;99822.06;7390576;19;20078;-67
2023/09/22 10:06:16;;;;;;;1.63;1.10;;;;;;;17.07;87.65;99824.63;7394902;19;20038;-66
2023/09/22 10:08:45;;;;;;;3.03;1.08;;;;;;;17.08;87.25;99823.66;7401044;19;20015;-68
2023/09/22 10:11:17;;;;;;;2.10;0.93;;;;;;;17.09;87.11;99828.00;7399642;19;20027;-67
2023/09/22 10:13:46;;;;;;;1.85;1.20;;;;;;;17.10;87.23;99829.72;7397547;19;20067;-68
2023/09/22 10:16:14;;;;;;;2.70;1.50;;;;;;;17.13;86.76;99827.84;7397551;19;20486;-67
2023/09/22 10:18:51;;;;;;;2.55;1.30;;;;;;;17.14;86.91;99824.25;7396573;19;20393;-68
2023/09/22 10:21:41;;;;;;;1.67;1.30;;;;;;;17.14;86.71;99821.59;7399452;19;20492;-68
2023/09/22 10:24:23;;;;;;;2.67;1.40;;;;;;;17.16;86.65;99824.97;7396604;19;20505;-68
2023/09/22 10:27:13;;;;;;;4.50;1.48;;;;;;;17.16;86.42;99838.22;7398952;19;20006;-67
2023/09/22 10:29:54;;;;;;;8.43;1.58;;;;;;;17.16;86.46;99825.84;7399483;19;20426;-67
2023/09/22 10:32:28;;;;;;;2.38;1.13;;;;;;;17.15;86.06;99826.78;7396334;19;20492;-67
2023/09/22 10:34:56;;;;;;;;;;;;;;;17.15;86.29;99823.28;7397394;19;20010;-67
2023/09/22 10:37:27;;;;;;;2.10;1.38;;;;;;;17.13;86.18;99817.25;7398738;19;19994;-65
2023/09/22 10:39:58;;;;;;;1.27;1.13;;;;;;;17.12;86.62;99820.81;7398327;19;20029;-68
2023/09/22 10:42:29;;;;;;;2.92;1.77;;;;;;;17.08;86.25;99814.88;7397097;19;20018;-67
2023/09/22 10:45:06;;;;;;;3.33;1.92;;;;;;;17.09;86.19;99816.56;7399238;19;20011;-69
2023/09/22 10:47:41;;;;;;;2.75;1.90;;;;;;;17.09;86.21;99828.00;7401612;19;20086;-68
2023/09/22 10:50:18;;;;;;;2.35;1.70;;;;;;;17.12;86.54;99819.03;7398655;19;20010;-68
2023/09/22 10:52:55;;;;;;;5.07;1.50;;;;;;;17.15;86.33;99826.78;7398753;19;20038;-68
2023/09/22 10:55:34;;;;;;;2.17;1.10;;;;;;;17.18;86.30;99820.44;7396918;19;20006;-68
2023/09/22 10:58:06;;;;;;;2.35;1.02;;;;;;;17.21;86.33;99825.53;7397865;19;20038;-68
2023/09/22 11:00:37;;;;;;;2.92;1.90;;;;;;;17.23;86.57;99824.47;7400367;19;20074;-68
2023/09/22 11:03:08;;;;;;;4.35;1.45;;;;;;;17.24;86.56;99818.25;7397052;19;20033;-68
2023/09/22 11:05:37;;;;;;;1.92;1.60;;;;;;;17.30;86.55;99818.78;7397743;19;20151;-67
2023/09/22 11:08:14;;;;;;;3.08;1.80;;;;;;;17.34;87.05;99821.16;7396682;19;20033;-67
2023/09/22 11:10:44;;;;;;;4.97;2.30;;;;;;;17.39;86.95;99816.41;7394827;19;20370;-68
2023/09/22 11:13:16;;;;;;;2.15;1.60;;;;;;;17.45;86.99;99822.25;7396152;19;20074;-65
2023/09/22 11:15:54;;;;;;;3.70;1.80;;;;;;;17.50;86.95;99826.31;7395531;19;20086;-67
2023/09/22 11:18:28;;;;;;;3.10;1.55;;;;;;;17.54;86.64;99827.81;7394895;19;20373;-66
2023/09/22 11:20:59;;;;;;;2.90;1.40;;;;;;;17.58;86.75;99829.31;7394665;19;20082;-66
2023/09/22 11:23:28;;;;;;;2.78;2.22;;;;;;;17.63;86.23;99834.31;7395767;19;20074;-67
2023/09/22 11:26:00;;;;;;;2.47;1.48;;;;;;;17.68;86.16;99836.63;7395674;19;20561;-68
2023/09/22 11:28:31;;;;;;;1.92;1.23;;;;;;;17.72;85.65;99831.03;7395103;19;20014;-68
2023/09/22 11:31:08;;;;;;;2.85;1.65;;;;;;;17.75;85.12;99841.47;7395021;19;20027;-67
2023/09/22 11:33:38;;;;;;;2.85;1.70;;;;;;;17.78;85.02;99842.19;7396063;19;20014;-68
2023/09/22 11:36:08;;;;;;;5.35;1.88;;;;;;;17.82;84.83;99846.34;7394224;19;20013;-67
2023/09/22 11:38:39;;;;;;;3.08;1.90;;;;;;;17.82;84.78;99855.16;7394933;19;20014;-68
2023/09/22 11:41:10;;;;;;;3.08;1.60;;;;;;;17.85;84.17;99862.06;7396335;19;20046;-66
2023/09/22 11:43:44;;;;;;;4.80;2.20;;;;;;;17.83;84.10;99867.50;7394681;19;20379;-67
2023/09/22 11:46:14;;;;;;;2.85;1.50;;;;;;;17.83;84.15;99863.97;7397398;19;20078;-67
2023/09/22 11:48:57;;;;;;;1.80;1.50;;;;;;;17.82;82.38;99860.47;7396633;19;20494;-67